Time;durP1;ratioP1;P1;durP2;ratioP2;P2;SDS_P1;SDS_P2;PMS_P1;PMS_P2;Temp;Humidity;BMP_temperature;BMP_pressure;BME280_temperature;BME280_humidity;BME280_pressure;Samples;Min_cycle;Max_cycle;Signal;HPM_P1;HPM_P2
2021/09/22 00:00:29;;;;;;;4.35;3.40;;;10.30;86.70;;;;;;5006498;28;20058;-79
2021/09/22 00:02:55;;;;;;;8.15;4.07;;;10.30;86.70;;;;;;5031076;28;20411;-79
2021/09/22 00:05:20;;;;;;;7.72;3.58;;;10.20;86.70;;;;;;5021165;28;20411;-79
2021/09/22 00:07:46;;;;;;;6.03;3.78;;;10.20;86.90;;;;;;5022199;28;20506;-79
2021/09/22 00:10:14;;;;;;;7.75;4.45;;;10.20;87.10;;;;;;5022744;28;20591;-79
2021/09/22 00:12:40;;;;;;;8.80;4.55;;;10.10;86.90;;;;;;5001466;28;20045;-79
2021/09/22 00:15:07;;;;;;;7.65;5.05;;;10.10;86.90;;;;;;5018602;28;20025;-80
2021/09/22 00:17:33;;;;;;;8.43;5.18;;;10.00;86.80;;;;;;5007340;28;20043;-79
2021/09/22 00:19:59;;;;;;;5.32;3.97;;;10.00;86.70;;;;;;5012289;28;20024;-79
2021/09/22 00:22:24;;;;;;;5.47;3.80;;;9.90;88.00;;;;;;5003779;28;20091;-79
2021/09/22 00:24:50;;;;;;;6.85;3.53;;;9.80;87.80;;;;;;5025669;28;20036;-79
2021/09/22 00:27:16;;;;;;;4.60;3.58;;;9.80;88.10;;;;;;5028441;28;20437;-80
2021/09/22 00:29:41;;;;;;;8.40;3.75;;;9.80;88.50;;;;;;5041398;28;20028;-80
2021/09/22 00:32:07;;;;;;;4.57;3.50;;;9.80;88.70;;;;;;5040427;28;20025;-79
2021/09/22 00:34:32;;;;;;;7.97;4.20;;;9.80;89.40;;;;;;5042484;28;20781;-80
2021/09/22 00:36:58;;;;;;;5.43;4.00;;;9.80;90.00;;;;;;5008776;28;20025;-80
2021/09/22 00:39:23;;;;;;;6.40;4.20;;;9.80;88.70;;;;;;4999702;28;20057;-80
2021/09/22 00:41:49;;;;;;;8.43;4.38;;;9.70;88.90;;;;;;5023204;28;20037;-81
2021/09/22 00:44:15;;;;;;;7.10;4.18;;;9.80;89.80;;;;;;5003650;28;20029;-79
2021/09/22 00:46:40;;;;;;;8.23;4.47;;;9.80;89.10;;;;;;5000002;28;20025;-80
2021/09/22 00:49:06;;;;;;;7.30;4.15;;;9.70;89.80;;;;;;5022716;28;20577;-80
2021/09/22 00:51:31;;;;;;;5.47;4.28;;;9.50;89.60;;;;;;5002077;28;20088;-80
2021/09/22 00:53:57;;;;;;;7.35;4.63;;;9.70;90.30;;;;;;5007758;28;20055;-81
2021/09/22 00:56:22;;;;;;;7.43;4.72;;;9.70;89.90;;;;;;5004736;28;20028;-80
2021/09/22 00:58:48;;;;;;;9.32;6.85;;;9.60;89.80;;;;;;5039070;28;20048;-81
2021/09/22 01:01:14;;;;;;;8.75;5.18;;;9.60;89.60;;;;;;5021835;28;20042;-80
2021/09/22 01:03:39;;;;;;;6.28;4.32;;;9.50;89.50;;;;;;5037093;28;20124;-82
2021/09/22 01:06:05;;;;;;;10.38;4.97;;;9.60;90.40;;;;;;5022663;28;20028;-81
2021/09/22 01:08:31;;;;;;;6.05;4.63;;;9.60;89.80;;;;;;5037012;28;20058;-81
2021/09/22 01:10:56;;;;;;;5.35;3.70;;;9.60;90.10;;;;;;5004073;28;20040;-81
2021/09/22 01:13:22;;;;;;;7.85;3.85;;;9.60;90.10;;;;;;5020015;28;20493;-80
2021/09/22 01:15:48;;;;;;;7.22;3.90;;;9.60;90.00;;;;;;5024443;28;20032;-81
2021/09/22 01:18:16;;;;;;;4.78;3.45;;;9.50;89.90;;;;;;5040564;28;20075;-81
2021/09/22 01:20:43;;;;;;;6.32;4.47;;;9.50;90.20;;;;;;5035584;28;20033;-81
2021/09/22 01:23:09;;;;;;;5.30;3.50;;;9.60;90.50;;;;;;5040079;28;20041;-81
2021/09/22 01:25:36;;;;;;;5.57;4.03;;;9.50;90.40;;;;;;5039388;28;20052;-80
2021/09/22 01:28:02;;;;;;;6.68;4.10;;;9.50;90.40;;;;;;5025056;28;20071;-82
2021/09/22 01:30:28;;;;;;;4.85;3.53;;;9.40;90.60;;;;;;5040206;28;20055;-81
2021/09/22 01:32:55;;;;;;;8.15;3.78;;;9.40;90.60;;;;;;5010350;28;20274;-80
2021/09/22 01:35:21;;;;;;;5.53;3.95;;;9.40;90.40;;;;;;5024409;28;20029;-81
2021/09/22 01:37:47;;;;;;;8.23;4.30;;;9.60;90.80;;;;;;5024278;28;20035;-82
2021/09/22 01:40:12;;;;;;;7.47;3.78;;;9.60;90.50;;;;;;5007655;28;20033;-82
2021/09/22 01:42:38;;;;;;;4.85;3.50;;;9.70;90.60;;;;;;5042350;28;20029;-80
2021/09/22 01:45:08;;;;;;;6.55;4.20;;;9.50;90.60;;;;;;5039129;28;20234;-81
2021/09/22 01:47:34;;;;;;;4.85;3.70;;;9.50;90.40;;;;;;5037341;28;20047;-81
2021/09/22 01:50:21;;;;;;;6.45;4.00;;;9.50;91.20;;;;;;5010712;28;20080;-80
2021/09/22 01:52:49;;;;;;;6.50;3.88;;;9.50;91.20;;;;;;5055998;28;20051;-80
2021/09/22 01:55:16;;;;;;;7.65;4.25;;;9.40;90.90;;;;;;5041195;28;20052;-81
2021/09/22 01:57:41;;;;;;;7.80;4.75;;;9.30;91.10;;;;;;5037242;28;20536;-80
2021/09/22 02:00:08;;;;;;;8.77;5.45;;;9.20;91.30;;;;;;5014812;28;20020;-81
2021/09/22 02:02:33;;;;;;;5.95;3.85;;;9.20;91.30;;;;;;5029778;28;20089;-80
2021/09/22 02:04:59;;;;;;;8.85;5.20;;;9.20;91.10;;;;;;5012997;28;20037;-80
2021/09/22 02:07:25;;;;;;;6.00;3.95;;;9.20;91.10;;;;;;5029463;28;20078;-81
2021/09/22 02:09:51;;;;;;;7.50;5.72;;;9.20;91.20;;;;;;5025188;28;20611;-81
2021/09/22 02:12:16;;;;;;;10.05;5.38;;;9.10;91.00;;;;;;5043572;28;20055;-81
2021/09/22 02:14:42;;;;;;;10.23;5.95;;;8.90;90.90;;;;;;5026934;28;20112;-81
2021/09/22 02:17:07;;;;;;;9.57;5.85;;;8.90;91.80;;;;;;5043258;28;20040;-85
2021/09/22 02:19:33;;;;;;;7.18;4.75;;;8.90;91.50;;;;;;5025487;28;20032;-85
2021/09/22 02:21:58;;;;;;;6.65;4.32;;;9.00;91.40;;;;;;5029447;28;20675;-85
2021/09/22 02:24:24;;;;;;;8.25;5.35;;;9.00;91.70;;;;;;5032898;28;20120;-85
2021/09/22 02:26:51;;;;;;;9.80;5.03;;;8.90;91.70;;;;;;5045907;28;20103;-85
2021/09/22 02:29:18;;;;;;;10.23;6.10;;;8.90;91.70;;;;;;5030320;28;20040;-85
2021/09/22 02:31:45;;;;;;;9.68;4.82;;;8.80;92.00;;;;;;5043613;28;20047;-85
2021/09/22 02:34:10;;;;;;;8.77;5.38;;;8.90;91.70;;;;;;5041240;28;20396;-85
2021/09/22 02:36:36;;;;;;;7.80;4.47;;;8.80;91.70;;;;;;5043653;28;20032;-84
2021/09/22 02:39:02;;;;;;;6.07;4.07;;;8.80;91.70;;;;;;5025422;28;20046;-85
2021/09/22 02:41:27;;;;;;;7.88;4.35;;;9.00;92.10;;;;;;5007449;28;20402;-85
2021/09/22 02:43:53;;;;;;;6.22;4.82;;;9.00;91.80;;;;;;5026474;28;20036;-85
2021/09/22 02:46:18;;;;;;;10.98;6.05;;;8.90;91.70;;;;;;5017172;28;20059;-85
2021/09/22 02:48:44;;;;;;;9.45;5.78;;;8.70;92.40;;;;;;5045085;28;20025;-85
2021/09/22 02:51:09;;;;;;;7.32;4.53;;;8.70;92.20;;;;;;5029521;28;20040;-85
2021/09/22 02:53:35;;;;;;;6.68;4.78;;;8.90;92.40;;;;;;5009914;28;20032;-85
2021/09/22 02:56:00;;;;;;;8.52;5.88;;;9.10;92.70;;;;;;5028082;28;20504;-86
2021/09/22 02:58:26;;;;;;;7.53;4.78;;;9.00;92.40;;;;;;5018294;28;20052;-82
2021/09/22 03:00:51;;;;;;;7.43;5.03;;;8.90;92.30;;;;;;5028751;28;20029;-81
2021/09/22 03:03:17;;;;;;;6.03;4.22;;;8.90;92.80;;;;;;5045636;28;20040;-82
2021/09/22 03:05:43;;;;;;;10.07;6.35;;;8.80;92.60;;;;;;5044224;28;20033;-82
2021/09/22 03:08:08;;;;;;;7.88;4.85;;;8.70;93.50;;;;;;5028370;28;20131;-81
2021/09/22 03:10:34;;;;;;;7.82;4.97;;;8.70;92.90;;;;;;5025834;28;20020;-84
2021/09/22 03:13:00;;;;;;;9.77;4.90;;;8.60;93.00;;;;;;5032182;28;20156;-84
2021/09/22 03:15:26;;;;;;;8.88;5.93;;;8.80;93.30;;;;;;5041847;28;20392;-83
2021/09/22 03:17:52;;;;;;;8.05;4.90;;;8.80;94.20;;;;;;5009943;28;20032;-83
2021/09/22 03:20:17;;;;;;;9.25;5.57;;;8.70;93.10;;;;;;5012031;28;20029;-84
2021/09/22 03:22:43;;;;;;;8.30;6.38;;;8.60;93.40;;;;;;5043976;28;20028;-84
2021/09/22 03:25:09;;;;;;;9.80;6.90;;;8.50;93.90;;;;;;5026626;28;20108;-83
2021/09/22 03:27:34;;;;;;;7.90;5.18;;;8.30;94.20;;;;;;5045330;28;20025;-83
2021/09/22 03:30:00;;;;;;;9.05;5.13;;;8.60;93.60;;;;;;5011119;28;20072;-83
2021/09/22 03:32:25;;;;;;;8.90;5.47;;;8.60;93.40;;;;;;5028635;28;20090;-83
2021/09/22 03:34:51;;;;;;;7.13;4.22;;;8.50;93.00;;;;;;5011521;28;20373;-84
2021/09/22 03:37:16;;;;;;;7.05;5.22;;;8.60;93.40;;;;;;5030451;28;20491;-84
2021/09/22 03:39:42;;;;;;;7.88;5.43;;;8.70;93.00;;;;;;5024432;28;20028;-84
2021/09/22 03:42:08;;;;;;;5.90;4.80;;;8.50;92.80;;;;;;5023664;28;20324;-84
2021/09/22 03:44:33;;;;;;;8.88;4.75;;;8.40;93.20;;;;;;5025174;28;20069;-84
2021/09/22 03:46:59;;;;;;;7.15;5.05;;;8.30;93.20;;;;;;5006042;28;20048;-84
2021/09/22 03:49:24;;;;;;;7.88;4.97;;;8.40;93.30;;;;;;5045405;28;20475;-83
2021/09/22 03:51:50;;;;;;;8.63;5.13;;;8.40;93.80;;;;;;5044024;28;20546;-84
2021/09/22 03:54:15;;;;;;;7.78;4.95;;;8.50;93.60;;;;;;5023295;28;20075;-84
2021/09/22 03:56:41;;;;;;;8.93;6.43;;;8.60;93.80;;;;;;5037481;28;20036;-84
2021/09/22 03:59:06;;;;;;;8.18;5.35;;;8.40;94.20;;;;;;5012715;28;20033;-84
2021/09/22 04:01:32;;;;;;;7.55;5.25;;;8.30;93.90;;;;;;5040118;28;20036;-85
2021/09/22 04:03:57;;;;;;;10.23;5.40;;;8.50;94.10;;;;;;5030825;28;20036;-85
2021/09/22 04:06:23;;;;;;;7.72;5.00;;;8.40;93.80;;;;;;5000715;28;20500;-84
2021/09/22 04:08:50;;;;;;;11.70;5.47;;;8.60;94.00;;;;;;5033100;28;20045;-84
2021/09/22 04:11:17;;;;;;;13.13;6.30;;;8.60;93.80;;;;;;5023367;28;20033;-84
2021/09/22 04:13:42;;;;;;;17.45;6.60;;;8.40;93.80;;;;;;5046402;28;20050;-85
2021/09/22 04:16:09;;;;;;;8.55;4.82;;;8.30;93.80;;;;;;5015258;28;20068;-86
2021/09/22 04:18:34;;;;;;;11.70;7.13;;;8.20;93.90;;;;;;5030556;28;20025;-85
2021/09/22 04:21:00;;;;;;;12.50;6.45;;;8.20;94.00;;;;;;5000931;28;20480;-84
2021/09/22 04:23:26;;;;;;;11.95;7.70;;;8.30;94.20;;;;;;5034765;28;20492;-85
2021/09/22 04:25:51;;;;;;;13.43;7.43;;;8.20;95.20;;;;;;5033320;28;20033;-86
2021/09/22 04:28:17;;;;;;;7.25;4.75;;;8.20;94.60;;;;;;5007903;28;20025;-86
2021/09/22 04:30:42;;;;;;;10.20;4.72;;;8.30;94.40;;;;;;5039094;28;20522;-86
2021/09/22 04:33:08;;;;;;;8.18;4.93;;;8.40;93.90;;;;;;5046260;28;20063;-85
2021/09/22 04:35:34;;;;;;;9.80;6.75;;;8.30;93.80;;;;;;5041733;28;20078;-85
2021/09/22 04:38:01;;;;;;;13.65;7.85;;;8.30;94.10;;;;;;5025945;28;20191;-83
2021/09/22 04:40:30;;;;;;;7.45;4.93;;;8.20;94.30;;;;;;5036259;28;20029;-85
2021/09/22 04:42:56;;;;;;;7.22;5.38;;;8.20;94.10;;;;;;5022558;28;20040;-85
2021/09/22 04:45:22;;;;;;;7.07;4.57;;;8.30;94.30;;;;;;5022766;28;20381;-85
2021/09/22 04:47:50;;;;;;;8.57;6.00;;;8.50;93.90;;;;;;5042128;28;20009;-85
2021/09/22 04:50:16;;;;;;;7.18;4.68;;;8.40;94.50;;;;;;5035520;28;20444;-85
2021/09/22 04:52:41;;;;;;;12.05;6.45;;;8.40;94.10;;;;;;5038543;28;20032;-86
2021/09/22 04:55:07;;;;;;;9.65;5.93;;;8.40;94.20;;;;;;5039410;28;20017;-85
2021/09/22 04:57:33;;;;;;;9.90;7.32;;;8.30;94.40;;;;;;5027942;28;20056;-86
2021/09/22 04:59:58;;;;;;;11.18;6.80;;;8.30;94.60;;;;;;5021863;28;20056;-84
2021/09/22 05:02:24;;;;;;;12.50;6.10;;;8.30;94.70;;;;;;5030405;28;20107;-85
2021/09/22 05:04:49;;;;;;;10.98;6.13;;;8.40;94.40;;;;;;5031849;28;20059;-80
2021/09/22 05:07:15;;;;;;;9.60;5.78;;;8.50;94.20;;;;;;5020402;28;20025;-80
2021/09/22 05:09:41;;;;;;;8.82;5.28;;;8.50;93.90;;;;;;5031489;28;20082;-80
2021/09/22 05:12:06;;;;;;;11.88;6.47;;;8.50;94.10;;;;;;4993152;28;20027;-79
2021/09/22 05:14:32;;;;;;;14.15;8.93;;;8.30;94.00;;;;;;5009103;28;20039;-80
2021/09/22 05:16:57;;;;;;;10.63;6.43;;;8.20;94.50;;;;;;4993964;28;20098;-82
2021/09/22 05:19:23;;;;;;;13.32;8.50;;;8.10;94.40;;;;;;5015312;28;20029;-81
2021/09/22 05:21:48;;;;;;;12.13;7.88;;;8.10;94.90;;;;;;5028743;28;20596;-81
2021/09/22 05:24:14;;;;;;;14.05;8.35;;;8.10;95.50;;;;;;4995271;28;20030;-81
2021/09/22 05:26:40;;;;;;;13.52;9.52;;;8.10;95.30;;;;;;5025578;28;20112;-81
2021/09/22 05:29:05;;;;;;;13.15;8.13;;;8.00;95.50;;;;;;5027047;28;20051;-81
2021/09/22 05:31:31;;;;;;;14.55;8.23;;;8.00;95.60;;;;;;5022696;28;20502;-79
2021/09/22 05:33:57;;;;;;;13.18;8.20;;;8.00;94.80;;;;;;5026148;28;20033;-80
2021/09/22 05:36:22;;;;;;;12.68;6.70;;;8.10;94.90;;;;;;5026019;28;20078;-80
2021/09/22 05:38:48;;;;;;;10.38;7.32;;;8.00;94.70;;;;;;5035091;28;20093;-81
2021/09/22 05:41:14;;;;;;;15.40;9.30;;;8.10;95.30;;;;;;5018522;28;20076;-80
2021/09/22 05:43:39;;;;;;;11.25;6.90;;;8.00;95.80;;;;;;5030237;28;20435;-80
2021/09/22 05:46:05;;;;;;;12.32;6.72;;;8.20;95.10;;;;;;5011232;28;20045;-80
2021/09/22 05:48:30;;;;;;;17.27;9.32;;;8.10;96.40;;;;;;5002585;28;20087;-80
2021/09/22 05:50:57;;;;;;;20.15;10.50;;;8.10;96.40;;;;;;5019822;28;20041;-80
2021/09/22 05:53:25;;;;;;;17.73;9.98;;;8.10;96.20;;;;;;5023405;28;20025;-82
2021/09/22 05:55:51;;;;;;;19.77;9.55;;;8.10;95.60;;;;;;5039820;28;20040;-81
2021/09/22 05:58:19;;;;;;;14.27;8.82;;;8.10;95.90;;;;;;5027117;28;20025;-81
2021/09/22 06:00:46;;;;;;;10.77;6.97;;;8.20;94.90;;;;;;5021851;28;20033;-81
2021/09/22 06:03:11;;;;;;;11.60;7.38;;;8.20;95.30;;;;;;5024394;28;20055;-81
2021/09/22 06:05:39;;;;;;;17.20;9.57;;;8.30;95.10;;;;;;5020106;28;20029;-81
2021/09/22 06:08:06;;;;;;;13.57;9.30;;;8.40;96.50;;;;;;5022632;28;20021;-82
2021/09/22 06:10:32;;;;;;;15.48;8.38;;;8.30;96.20;;;;;;4994784;28;20028;-81
2021/09/22 06:12:58;;;;;;;12.02;6.78;;;8.30;97.10;;;;;;5013363;28;20473;-81
2021/09/22 06:15:26;;;;;;;16.10;9.30;;;8.40;95.20;;;;;;5011837;28;20029;-81
2021/09/22 06:17:51;;;;;;;19.58;10.73;;;8.40;95.10;;;;;;5019160;28;20282;-81
2021/09/22 06:20:18;;;;;;;17.13;10.50;;;8.40;96.00;;;;;;5040883;28;20029;-81
2021/09/22 06:22:44;;;;;;;12.45;8.95;;;8.50;95.80;;;;;;5004559;28;20075;-80
2021/09/22 06:25:10;;;;;;;18.90;9.85;;;8.60;96.10;;;;;;5004248;28;20025;-80
2021/09/22 06:27:35;;;;;;;15.25;8.98;;;8.70;96.50;;;;;;5002831;28;20040;-81
2021/09/22 06:30:01;;;;;;;18.88;12.95;;;8.80;95.70;;;;;;5036565;28;20029;-80
2021/09/22 06:32:26;;;;;;;13.57;7.80;;;8.90;95.60;;;;;;5022946;28;20025;-82
2021/09/22 06:34:52;;;;;;;10.35;7.63;;;8.90;96.10;;;;;;5002458;28;20500;-81
2021/09/22 06:37:18;;;;;;;19.40;10.20;;;8.90;95.60;;;;;;5032625;28;20051;-81
2021/09/22 06:39:43;;;;;;;18.65;11.02;;;9.00;95.70;;;;;;5021069;28;20115;-81
2021/09/22 06:42:09;;;;;;;11.60;7.80;;;9.00;97.80;;;;;;5020889;28;20039;-81
2021/09/22 06:44:34;;;;;;;18.15;11.32;;;9.10;96.00;;;;;;5037935;28;20039;-81
2021/09/22 06:47:00;;;;;;;12.20;6.78;;;9.10;96.80;;;;;;5039427;28;20079;-78
2021/09/22 06:49:26;;;;;;;16.23;8.55;;;9.20;96.00;;;;;;5022812;28;20134;-78
2021/09/22 06:52:00;;;;;;;14.90;8.18;;;9.40;96.10;;;;;;5044771;28;20035;-78
2021/09/22 06:54:26;;;;;;;17.55;11.18;;;9.40;96.00;;;;;;5008037;28;20032;-78
2021/09/22 06:56:52;;;;;;;18.98;11.43;;;9.50;97.80;;;;;;5023694;28;20033;-78
2021/09/22 06:59:18;;;;;;;19.73;12.05;;;9.50;98.60;;;;;;5022830;28;20024;-78
2021/09/22 07:01:44;;;;;;;23.52;12.57;;;9.50;97.60;;;;;;5022206;28;20044;-82
2021/09/22 07:04:09;;;;;;;22.35;13.60;;;9.60;98.60;;;;;;5019130;28;20523;-79
2021/09/22 07:06:36;;;;;;;13.95;8.80;;;9.60;98.00;;;;;;5011581;28;20480;-80
2021/09/22 07:09:02;;;;;;;23.50;12.38;;;9.70;96.90;;;;;;5037772;28;20331;-79
2021/09/22 07:11:28;;;;;;;18.88;12.90;;;9.80;96.90;;;;;;5023771;28;20186;-79
2021/09/22 07:13:53;;;;;;;20.52;12.90;;;9.90;96.90;;;;;;5034869;28;20077;-80
2021/09/22 07:16:19;;;;;;;14.25;8.05;;;10.00;95.30;;;;;;5019183;28;20025;-81
2021/09/22 07:18:45;;;;;;;14.70;8.90;;;10.20;95.70;;;;;;5046171;28;20029;-79
2021/09/22 07:21:11;;;;;;;17.83;11.23;;;10.30;95.80;;;;;;5017759;28;20028;-79
2021/09/22 07:23:37;;;;;;;22.92;13.02;;;10.40;95.30;;;;;;5019391;28;20033;-80
2021/09/22 07:26:05;;;;;;;10.70;7.25;;;10.60;95.30;;;;;;5014693;28;20397;-80
2021/09/22 07:28:31;;;;;;;13.45;9.50;;;10.60;95.60;;;;;;5021952;28;20127;-80
2021/09/22 07:30:59;;;;;;;16.67;9.57;;;10.70;96.00;;;;;;5027631;28;20112;-80
2021/09/22 07:33:24;;;;;;;19.00;11.70;;;10.80;95.70;;;;;;5035999;28;20595;-80
2021/09/22 07:35:52;;;;;;;17.88;12.75;;;11.00;96.60;;;;;;5040070;28;20029;-80
2021/09/22 07:38:18;;;;;;;26.38;12.77;;;11.10;95.80;;;;;;5039190;28;20029;-80
2021/09/22 07:40:44;;;;;;;27.50;15.10;;;11.30;95.90;;;;;;5028387;28;20504;-80
2021/09/22 07:43:10;;;;;;;14.57;8.93;;;11.40;97.50;;;;;;5022301;28;20054;-81
2021/09/22 07:45:36;;;;;;;26.42;14.68;;;11.50;95.60;;;;;;5038389;28;20516;-80
2021/09/22 07:48:01;;;;;;;27.58;14.50;;;11.60;95.10;;;;;;5021667;28;20029;-80
2021/09/22 07:50:27;;;;;;;32.88;17.67;;;11.60;94.80;;;;;;5020926;28;20048;-79
2021/09/22 07:52:59;;;;;;;28.88;15.90;;;11.80;95.50;;;;;;5016681;28;20082;-79
2021/09/22 07:55:24;;;;;;;13.10;7.88;;;11.90;94.80;;;;;;5026873;28;20029;-79
2021/09/22 07:57:54;;;;;;;15.52;7.80;;;12.00;95.00;;;;;;5021485;28;20029;-80
2021/09/22 08:00:19;;;;;;;15.45;8.63;;;12.20;95.00;;;;;;5020679;28;20108;-79
2021/09/22 08:02:45;;;;;;;19.48;12.07;;;12.30;94.60;;;;;;5014409;28;20052;-80
2021/09/22 08:05:11;;;;;;;14.25;9.27;;;12.50;94.90;;;;;;5036816;28;20040;-80
2021/09/22 08:07:37;;;;;;;20.70;14.25;;;12.60;94.70;;;;;;4997256;28;20421;-81
2021/09/22 08:10:04;;;;;;;15.80;8.40;;;12.60;94.70;;;;;;5018280;28;20040;-80
2021/09/22 08:12:29;;;;;;;26.40;11.73;;;12.80;94.70;;;;;;5011985;28;20101;-81
2021/09/22 08:14:55;;;;;;;15.10;8.95;;;12.90;94.10;;;;;;5021463;28;20037;-80
2021/09/22 08:17:20;;;;;;;18.50;10.90;;;13.30;95.20;;;;;;4997727;28;20039;-79
2021/09/22 08:19:47;;;;;;;18.23;10.18;;;13.50;94.20;;;;;;5033419;28;20044;-80
2021/09/22 08:22:13;;;;;;;17.13;11.30;;;13.70;93.90;;;;;;4999017;28;20377;-81
2021/09/22 08:24:38;;;;;;;21.92;12.10;;;13.80;94.20;;;;;;5027406;28;20032;-81
2021/09/22 08:27:06;;;;;;;20.58;11.45;;;14.10;93.80;;;;;;5001866;28;20037;-80
2021/09/22 08:29:33;;;;;;;22.40;12.43;;;14.30;93.50;;;;;;5033133;28;20457;-80
2021/09/22 08:31:59;;;;;;;20.55;11.18;;;14.60;93.30;;;;;;5006362;28;20120;-81
2021/09/22 08:34:25;;;;;;;16.65;11.35;;;14.60;92.90;;;;;;5017653;28;20124;-80
2021/09/22 08:36:50;;;;;;;20.65;11.95;;;14.30;93.60;;;;;;5023348;28;20071;-80
2021/09/22 08:39:23;;;;;;;22.25;13.57;;;14.40;93.70;;;;;;5022844;28;20090;-80
2021/09/22 08:41:49;;;;;;;20.73;11.38;;;14.40;94.30;;;;;;5020795;28;20060;-80
2021/09/22 08:44:15;;;;;;;17.73;11.40;;;14.60;94.30;;;;;;5021215;28;20032;-81
2021/09/22 08:46:42;;;;;;;24.65;14.48;;;14.90;94.20;;;;;;5031425;28;20506;-81
2021/09/22 08:49:07;;;;;;;20.88;11.80;;;15.40;93.00;;;;;;5034225;28;20451;-80
2021/09/22 08:51:34;;;;;;;25.60;14.07;;;15.30;93.60;;;;;;4995641;28;20116;-81
2021/09/22 08:53:59;;;;;;;21.48;13.30;;;15.20;94.20;;;;;;5024460;28;20199;-81
2021/09/22 08:56:25;;;;;;;18.75;12.40;;;15.80;93.20;;;;;;5015595;28;20324;-80
2021/09/22 08:58:51;;;;;;;21.70;13.02;;;15.80;93.00;;;;;;5021624;28;20025;-80
2021/09/22 09:01:19;;;;;;;21.20;12.30;;;15.90;93.60;;;;;;5022376;28;20036;-80
2021/09/22 09:03:45;;;;;;;19.98;12.82;;;16.10;92.80;;;;;;5021751;28;20485;-81
2021/09/22 09:06:37;;;;;;;15.77;11.05;;;16.20;93.10;;;;;;5028502;28;20033;-80
2021/09/22 09:09:04;;;;;;;19.13;11.80;;;16.30;92.90;;;;;;5020702;28;20025;-80
2021/09/22 09:11:34;;;;;;;18.48;11.73;;;16.40;92.50;;;;;;5024574;28;20033;-80
2021/09/22 09:14:02;;;;;;;21.95;12.20;;;16.40;92.90;;;;;;4994153;28;20049;-81
2021/09/22 09:16:38;;;;;;;17.88;11.98;;;16.50;93.20;;;;;;5020378;28;20116;-80
2021/09/22 09:19:22;;;;;;;23.77;13.30;;;16.70;92.50;;;;;;5034860;28;20394;-81
2021/09/22 09:21:59;;;;;;;19.20;12.18;;;16.80;92.80;;;;;;5022070;28;20516;-80
2021/09/22 09:24:51;;;;;;;19.73;12.75;;;17.30;92.40;;;;;;5051760;28;20033;-81
2021/09/22 09:27:19;;;;;;;23.48;14.95;;;16.90;92.80;;;;;;5035216;28;20038;-81
2021/09/22 09:29:45;;;;;;;20.52;11.23;;;16.60;93.40;;;;;;5053385;28;20029;-80
2021/09/22 09:32:18;;;;;;;19.17;11.60;;;16.40;93.70;;;;;;5021123;28;20025;-81
2021/09/22 09:35:04;;;;;;;33.45;14.40;;;17.10;93.30;;;;;;5038607;28;20301;-79
2021/09/22 09:37:37;;;;;;;25.67;14.98;;;17.30;92.80;;;;;;5005506;28;20152;-80
2021/09/22 09:40:19;;;;;;;21.33;13.88;;;16.60;93.60;;;;;;5020084;28;20047;-80
2021/09/22 09:42:45;;;;;;;21.95;14.35;;;16.90;92.90;;;;;;5031850;28;20029;-80
2021/09/22 09:45:11;;;;;;;23.00;12.30;;;17.10;93.20;;;;;;5026817;28;20022;-80
2021/09/22 09:47:36;;;;;;;25.58;15.00;;;17.50;93.50;;;;;;5006315;28;20036;-80
2021/09/22 09:50:21;;;;;;;20.75;12.82;;;16.90;93.90;;;;;;5000185;28;20098;-80
2021/09/22 09:52:51;;;;;;;22.55;13.82;;;17.80;92.90;;;;;;5012400;28;20033;-81
2021/09/22 09:55:17;;;;;;;11.75;8.55;;;17.40;93.10;;;;;;4997778;28;20020;-81
2021/09/22 09:57:47;;;;;;;19.67;12.20;;;17.80;92.80;;;;;;5038060;28;20056;-81
2021/09/22 10:00:13;;;;;;;15.35;9.43;;;17.70;93.00;;;;;;5002735;28;20417;-82
2021/09/22 10:02:38;;;;;;;14.15;9.98;;;17.90;93.10;;;;;;5031793;28;20101;-81
2021/09/22 10:05:04;;;;;;;18.20;11.20;;;18.10;92.40;;;;;;5018939;28;20041;-81
2021/09/22 10:07:34;;;;;;;16.08;10.32;;;18.90;91.90;;;;;;5017288;28;20062;-81
2021/09/22 10:10:00;;;;;;;13.85;9.13;;;18.90;91.50;;;;;;5001789;28;20030;-82
2021/09/22 10:12:25;;;;;;;16.48;11.05;;;19.10;91.40;;;;;;5001250;28;20029;-81
2021/09/22 10:14:51;;;;;;;12.45;7.63;;;19.80;90.20;;;;;;5037536;28;20123;-81
2021/09/22 10:17:16;;;;;;;11.27;8.40;;;19.60;90.40;;;;;;5034414;28;20029;-82
2021/09/22 10:19:45;;;;;;;15.15;9.20;;;20.30;88.30;;;;;;5016104;28;20083;-82
2021/09/22 10:22:11;;;;;;;13.02;7.70;;;20.80;84.90;;;;;;5021510;28;20029;-82
2021/09/22 10:24:37;;;;;;;14.82;8.32;;;21.10;83.50;;;;;;5006514;28;20472;-83
2021/09/22 10:27:05;;;;;;;12.13;7.90;;;20.80;84.50;;;;;;5023280;28;20029;-82
2021/09/22 10:29:37;;;;;;;16.42;9.13;;;20.70;85.30;;;;;;5020797;28;20135;-82
2021/09/22 10:32:04;;;;;;;11.85;8.25;;;20.80;85.30;;;;;;5011199;28;20436;-83
2021/09/22 10:34:31;;;;;;;14.48;8.02;;;20.90;85.30;;;;;;5023833;28;20029;-82
2021/09/22 10:36:57;;;;;;;14.02;9.52;;;20.80;83.80;;;;;;5024457;28;20035;-83
2021/09/22 10:39:36;;;;;;;12.98;9.18;;;21.30;82.60;;;;;;5040102;28;20389;-82
2021/09/22 10:42:01;;;;;;;15.73;10.48;;;21.40;83.60;;;;;;5037693;28;20067;-82
2021/09/22 10:44:37;;;;;;;12.02;7.18;;;21.60;80.60;;;;;;5025545;28;20024;-83
2021/09/22 10:47:28;;;;;;;11.23;7.68;;;21.80;81.10;;;;;;5038775;28;20040;-82
2021/09/22 10:49:54;;;;;;;10.68;7.00;;;21.30;83.10;;;;;;5035404;28;20484;-83
2021/09/22 10:52:37;;;;;;;14.18;8.73;;;20.70;85.30;;;;;;5041547;28;20047;-83
2021/09/22 10:55:15;;;;;;;12.85;7.97;;;20.70;85.10;;;;;;5029528;28;20401;-83
2021/09/22 10:57:43;;;;;;;11.75;6.32;;;20.40;86.10;;;;;;5037609;28;20024;-83
2021/09/22 11:00:16;;;;;;;14.45;8.52;;;21.30;84.50;;;;;;5027024;28;20115;-83
2021/09/22 11:02:46;;;;;;;8.18;6.18;;;22.00;80.00;;;;;;4999994;28;20037;-83
2021/09/22 11:05:13;;;;;;;10.68;6.60;;;21.60;82.60;;;;;;5032466;28;20060;-83
2021/09/22 11:08:01;;;;;;;9.38;6.57;;;21.00;85.10;;;;;;5012153;28;20025;-84
2021/09/22 11:10:44;;;;;;;8.73;6.97;;;21.50;82.60;;;;;;5044424;28;20028;-83
2021/09/22 11:13:18;;;;;;;7.20;5.60;;;21.60;79.60;;;;;;5025746;28;20496;-84
2021/09/22 11:15:44;;;;;;;7.63;4.05;;;21.60;82.40;;;;;;5059102;28;20029;-84
2021/09/22 11:18:10;;;;;;;8.20;6.05;;;21.50;82.30;;;;;;5009628;28;20143;-84
2021/09/22 11:20:36;;;;;;;9.10;4.95;;;22.80;77.80;;;;;;4990849;28;20038;-84
2021/09/22 11:23:08;;;;;;;10.52;7.13;;;22.80;77.90;;;;;;5024645;28;20044;-83
2021/09/22 11:25:33;;;;;;;9.20;4.72;;;23.10;76.50;;;;;;5024702;28;20056;-83
2021/09/22 11:28:08;;;;;;;8.23;5.20;;;22.60;77.80;;;;;;5005020;28;20424;-82
2021/09/22 11:30:34;;;;;;;8.27;4.38;;;23.50;75.20;;;;;;5007040;28;20033;-83
2021/09/22 11:33:05;;;;;;;7.97;4.50;;;23.10;78.00;;;;;;5028400;28;20076;-83
2021/09/22 11:35:30;;;;;;;8.63;4.88;;;23.40;76.10;;;;;;4996607;28;20037;-83
2021/09/22 11:37:58;;;;;;;8.27;5.28;;;23.60;75.80;;;;;;5009407;28;20102;-83
2021/09/22 11:40:31;;;;;;;6.43;4.85;;;24.30;72.20;;;;;;5029103;28;20024;-84
2021/09/22 11:43:03;;;;;;;7.57;5.32;;;24.70;69.60;;;;;;5033939;28;20072;-83
2021/09/22 11:45:38;;;;;;;6.47;4.63;;;24.20;70.80;;;;;;5021976;28;20036;-84
2021/09/22 11:48:13;;;;;;;5.05;3.65;;;24.60;69.80;;;;;;4987253;28;20039;-84
2021/09/22 11:50:45;;;;;;;8.93;5.13;;;24.50;70.30;;;;;;5002771;28;20065;-84
2021/09/22 11:53:14;;;;;;;9.77;5.53;;;24.40;69.80;;;;;;4981282;28;20429;-84
2021/09/22 11:55:42;;;;;;;4.75;4.18;;;24.50;68.50;;;;;;5002636;28;20123;-84
2021/09/22 11:58:18;;;;;;;6.70;4.20;;;24.20;71.20;;;;;;5013863;28;20037;-84
2021/09/22 12:01:07;;;;;;;7.38;4.10;;;23.60;71.90;;;;;;4997133;28;20060;-84
2021/09/22 12:03:35;;;;;;;7.72;5.28;;;24.40;68.00;;;;;;4993621;28;20591;-84
2021/09/22 12:06:03;;;;;;;8.18;4.90;;;24.90;65.90;;;;;;5015006;28;20030;-85
2021/09/22 12:08:31;;;;;;;6.25;4.07;;;25.10;64.50;;;;;;5014637;28;20033;-84
2021/09/22 12:10:57;;;;;;;6.63;4.28;;;25.20;65.00;;;;;;5037601;28;20430;-84
2021/09/22 12:13:22;;;;;;;6.85;4.75;;;24.90;67.50;;;;;;5022137;28;20036;-84
2021/09/22 12:15:48;;;;;;;6.30;4.80;;;24.90;67.00;;;;;;4996309;28;20114;-84
2021/09/22 12:18:16;;;;;;;7.25;5.82;;;24.50;68.60;;;;;;5014008;28;20457;-85
2021/09/22 12:20:43;;;;;;;5.35;4.43;;;24.10;70.60;;;;;;5036902;28;20033;-84
2021/09/22 12:23:09;;;;;;;7.20;4.20;;;23.90;71.80;;;;;;5033427;28;20029;-84
2021/09/22 12:25:35;;;;;;;6.13;3.83;;;24.20;70.00;;;;;;5009518;28;20488;-84
2021/09/22 12:28:01;;;;;;;9.18;3.67;;;24.80;67.70;;;;;;5014491;28;20055;-84
2021/09/22 12:30:35;;;;;;;8.50;6.05;;;25.10;65.30;;;;;;5005678;28;20021;-84
2021/09/22 12:33:05;;;;;;;12.10;7.90;;;24.80;64.80;;;;;;5022823;28;20037;-84
2021/09/22 12:35:33;;;;;;;8.35;5.60;;;24.30;69.00;;;;;;4990600;28;20033;-84
2021/09/22 12:38:00;;;;;;;11.60;7.05;;;23.70;72.00;;;;;;5009120;28;20566;-84
2021/09/22 12:40:46;;;;;;;5.15;3.90;;;23.80;72.90;;;;;;5000598;28;20028;-85
2021/09/22 12:43:21;;;;;;;7.45;4.72;;;24.30;69.70;;;;;;5031707;28;20485;-84
2021/09/22 12:45:47;;;;;;;7.87;4.13;;;24.70;67.50;;;;;;5018220;28;20055;-84